createdAt,value
2022-09-03T00:10:16.247Z,100.00
2022-09-03T00:25:26.972Z,100.00
2022-09-03T00:40:41.985Z,100.00
2022-09-03T00:55:58.523Z,100.00
2022-09-03T01:11:10.515Z,100.00
2022-09-03T01:26:31.439Z,100.00
2022-09-03T01:42:12.112Z,100.00
2022-09-03T01:57:34.489Z,100.00
2022-09-03T02:12:38.463Z,100.00
2022-09-03T02:27:40.761Z,100.00
2022-09-03T02:42:43.204Z,100.00
2022-09-03T02:57:45.678Z,100.00
2022-09-03T03:12:47.884Z,100.00
2022-09-03T03:27:50.120Z,100.00
2022-09-03T03:42:53.557Z,100.00
2022-09-03T03:57:55.799Z,100.00
2022-09-03T04:12:58.033Z,100.00
2022-09-03T04:28:00.369Z,100.00
2022-09-03T04:43:05.014Z,100.00
2022-09-03T04:58:10.063Z,100.00
2022-09-03T05:13:12.312Z,100.00
2022-09-03T05:28:14.692Z,100.00
2022-09-03T05:43:17.214Z,100.00
2022-09-03T05:58:19.434Z,100.00
2022-09-03T06:13:21.744Z,100.00
2022-09-03T06:28:24.166Z,100.00
2022-09-03T06:43:33.005Z,100.00
2022-09-03T06:58:37.753Z,100.00
2022-09-03T07:13:46.718Z,100.00
2022-09-03T07:28:55.192Z,100.00
2022-09-03T08:17:50.886Z,100.00
2022-09-03T08:32:53.942Z,100.00
2022-09-03T08:48:12.092Z,95.96
2022-09-03T09:03:17.213Z,100.00
2022-09-03T09:18:37.136Z,91.46
2022-09-03T09:33:39.371Z,84.40
2022-09-03T09:48:55.524Z,86.24
2022-09-03T10:04:11.719Z,68.49
2022-09-03T10:19:17.196Z,74.87
2022-09-03T10:34:37.264Z,80.13
2022-09-03T10:49:51.383Z,76.94
2022-09-03T11:04:58.131Z,77.65
2022-09-03T11:20:10.692Z,63.19
2022-09-03T11:35:28.169Z,61.16
2022-09-03T11:50:31.910Z,65.65
2022-09-03T12:05:37.071Z,70.17
2022-09-03T12:20:40.226Z,75.62
2022-09-03T12:35:58.565Z,80.15
2022-09-03T12:51:47.813Z,91.68
2022-09-03T13:06:28.433Z,100.00
2022-09-03T13:21:50.739Z,100.00
2022-09-03T13:37:37.445Z,100.00
2022-09-03T13:52:59.320Z,100.00
2022-09-03T14:08:08.373Z,100.00
2022-09-03T14:23:26.248Z,100.00
2022-09-03T14:38:56.350Z,100.00
2022-09-03T14:54:24.883Z,100.00
2022-09-03T15:09:43.822Z,100.00
2022-09-03T15:25:13.102Z,100.00
2022-09-03T15:40:48.515Z,100.00
2022-09-03T15:56:03.608Z,100.00
2022-09-03T16:11:18.547Z,100.00
2022-09-03T16:26:33.644Z,100.00
2022-09-03T16:41:56.213Z,99.44
2022-09-03T16:57:29.025Z,100.00
2022-09-03T17:12:39.527Z,100.00
2022-09-03T17:28:02.288Z,100.00
2022-09-03T17:43:04.432Z,100.00
2022-09-03T17:58:28.281Z,100.00
2022-09-03T18:13:30.366Z,100.00
2022-09-03T18:29:20.008Z,100.00
2022-09-03T18:45:20.889Z,100.00
2022-09-03T19:00:42.696Z,100.00
2022-09-03T19:16:10.227Z,100.00
2022-09-03T19:32:00.610Z,100.00
2022-09-03T19:47:22.285Z,100.00
2022-09-03T20:02:43.919Z,100.00
2022-09-03T20:17:56.041Z,100.00
2022-09-03T20:33:26.027Z,100.00
2022-09-03T20:49:08.407Z,100.00
2022-09-03T21:04:24.417Z,100.00
2022-09-03T21:19:54.548Z,100.00
2022-09-03T21:35:20.777Z,100.00
2022-09-03T21:50:24.344Z,100.00
2022-09-03T22:05:29.230Z,100.00
2022-09-03T22:20:31.514Z,100.00
2022-09-03T22:35:46.476Z,100.00
2022-09-03T22:51:01.852Z,100.00
2022-09-03T23:06:14.187Z,100.00
2022-09-03T23:21:26.118Z,100.00
2022-09-03T23:52:40.734Z,100.00
